createdAt,value
2018-08-19T00:00:00.346Z,101441.00
2018-08-19T00:02:30.426Z,101434.00
2018-08-19T00:05:11.888Z,101431.00
2018-08-19T00:07:41.837Z,101430.00
2018-08-19T00:10:11.817Z,101430.00
2018-08-19T00:12:45.516Z,101431.00
2018-08-19T00:15:16.103Z,101422.00
2018-08-19T00:17:46.102Z,101421.00
2018-08-19T00:20:16.382Z,101422.00
2018-08-19T00:22:47.417Z,101423.00
2018-08-19T00:25:33.566Z,101421.00
2018-08-19T00:28:05.602Z,101417.00
2018-08-19T00:30:35.633Z,101414.00
2018-08-19T00:33:05.886Z,101410.00
2018-08-19T00:35:35.698Z,101412.00
2018-08-19T00:38:05.723Z,101412.00
2018-08-19T00:40:35.699Z,101410.00
2018-08-19T00:43:05.707Z,101416.00
2018-08-19T00:45:35.777Z,101415.00
2018-08-19T00:48:05.797Z,101419.00
2018-08-19T00:50:35.646Z,101418.00
2018-08-19T00:53:05.982Z,101422.00
2018-08-19T00:55:41.332Z,101416.00
2018-08-19T00:58:17.867Z,101420.00
2018-08-19T01:00:47.872Z,101415.00
2018-08-19T01:03:17.992Z,101418.00
2018-08-19T01:05:47.917Z,101406.00
2018-08-19T01:08:17.789Z,101408.00
2018-08-19T01:10:47.847Z,101410.00
2018-08-19T01:13:17.814Z,101407.00
2018-08-19T01:15:47.678Z,101408.00
2018-08-19T01:18:17.619Z,101409.00
2018-08-19T01:20:47.897Z,101407.00
2018-08-19T01:23:17.807Z,101412.00
2018-08-19T01:25:47.852Z,101413.00
2018-08-19T01:28:17.623Z,101412.00
2018-08-19T01:30:47.684Z,101407.00
2018-08-19T01:33:17.547Z,101410.00
2018-08-19T01:35:47.459Z,101404.00
2018-08-19T01:38:17.538Z,101404.00
2018-08-19T01:40:47.519Z,101405.00
2018-08-19T01:43:17.637Z,101402.00
2018-08-19T01:45:48.366Z,101405.00
2018-08-19T01:48:18.301Z,101402.00
2018-08-19T01:50:48.374Z,101403.00
2018-08-19T01:53:18.283Z,101401.00
2018-08-19T01:55:48.223Z,101397.00
2018-08-19T01:58:18.102Z,101394.00
2018-08-19T02:00:48.091Z,101392.00
2018-08-19T02:03:18.050Z,101391.00
2018-08-19T02:05:47.869Z,101396.00
2018-08-19T02:08:17.984Z,101402.00
2018-08-19T02:10:47.773Z,101403.00
2018-08-19T02:13:17.737Z,101411.00
2018-08-19T02:15:47.741Z,101400.00
2018-08-19T02:18:17.499Z,101400.00
2018-08-19T02:20:47.359Z,101397.00
2018-08-19T02:23:17.444Z,101398.00
2018-08-19T02:25:48.698Z,101399.00
2018-08-19T02:28:22.472Z,101401.00
2018-08-19T02:31:00.219Z,101394.00
2018-08-19T02:33:34.377Z,101398.00
2018-08-19T02:36:06.926Z,101395.00
2018-08-19T02:38:38.267Z,101395.00
2018-08-19T02:41:08.643Z,101394.00
2018-08-19T02:43:46.748Z,101394.00
2018-08-19T02:46:17.232Z,101394.00
2018-08-19T02:48:50.188Z,101392.00
2018-08-19T02:51:20.946Z,101387.00
2018-08-19T02:53:51.666Z,101390.00
2018-08-19T02:56:21.465Z,101393.00
2018-08-19T02:58:51.314Z,101388.00
2018-08-19T03:01:21.464Z,101391.00
2018-08-19T03:03:51.407Z,101388.00
2018-08-19T03:06:21.273Z,101390.00
2018-08-19T03:08:56.527Z,101386.00
2018-08-19T03:11:26.363Z,101384.00
2018-08-19T03:13:56.954Z,101388.00
2018-08-19T03:16:26.884Z,101387.00
2018-08-19T03:18:57.110Z,101384.00
2018-08-19T03:21:27.276Z,101390.00
2018-08-19T03:23:57.190Z,101392.00
2018-08-19T03:26:27.993Z,101392.00
2018-08-19T03:28:59.313Z,101390.00
2018-08-19T03:31:29.204Z,101382.00
2018-08-19T03:33:59.152Z,101383.00
2018-08-19T03:36:29.045Z,101377.00
2018-08-19T03:39:12.009Z,101375.00
2018-08-19T03:41:41.805Z,101371.00
2018-08-19T03:44:11.778Z,101369.00
2018-08-19T03:46:41.754Z,101371.00
2018-08-19T03:49:12.204Z,101379.00
2018-08-19T03:51:42.416Z,101381.00
2018-08-19T03:54:12.442Z,101382.00
2018-08-19T03:56:42.302Z,101382.00
2018-08-19T03:59:13.772Z,101383.00
2018-08-19T04:01:44.876Z,101388.00
2018-08-19T04:04:17.169Z,101386.00
2018-08-19T04:06:47.140Z,101384.00
2018-08-19T04:09:17.142Z,101383.00
2018-08-19T04:12:02.684Z,101384.00
2018-08-19T04:14:32.647Z,101384.00
2018-08-19T04:17:03.379Z,101382.00
2018-08-19T04:19:34.923Z,101375.00
2018-08-19T04:22:06.492Z,101376.00
2018-08-19T04:24:37.002Z,101375.00
2018-08-19T04:27:09.483Z,101375.00
2018-08-19T04:29:39.462Z,101377.00
2018-08-19T04:32:19.540Z,101379.00
2018-08-19T04:34:49.647Z,101379.00
2018-08-19T04:37:19.690Z,101384.00
2018-08-19T04:39:49.837Z,101380.00
2018-08-19T04:42:20.005Z,101380.00
2018-08-19T04:44:49.875Z,101376.00
2018-08-19T04:47:32.531Z,101377.00
2018-08-19T04:50:02.282Z,101379.00
2018-08-19T04:52:34.138Z,101381.00
2018-08-19T04:55:04.093Z,101368.00
2018-08-19T04:57:33.887Z,101376.00
2018-08-19T05:00:03.990Z,101380.00
2018-08-19T05:02:34.022Z,101385.00
2018-08-19T05:05:03.837Z,101384.00
2018-08-19T05:07:33.895Z,101385.00
2018-08-19T05:10:03.958Z,101385.00
2018-08-19T05:12:33.883Z,101384.00
2018-08-19T05:15:03.893Z,101386.00
2018-08-19T05:17:33.802Z,101383.00
2018-08-19T05:20:16.598Z,101386.00
2018-08-19T05:22:46.492Z,101388.00
2018-08-19T05:25:16.313Z,101397.00
2018-08-19T05:27:52.009Z,101393.00
2018-08-19T05:30:21.892Z,101395.00
2018-08-19T05:32:55.763Z,101395.00
2018-08-19T05:35:26.053Z,101398.00
2018-08-19T05:37:56.184Z,101393.00
2018-08-19T05:40:26.073Z,101393.00
2018-08-19T05:42:55.988Z,101396.00
2018-08-19T05:45:26.031Z,101395.00
2018-08-19T05:48:09.340Z,101392.00
2018-08-19T05:50:39.452Z,101396.00
2018-08-19T05:53:09.239Z,101388.00
2018-08-19T05:55:39.349Z,101392.00
2018-08-19T05:58:09.291Z,101393.00
2018-08-19T06:00:43.933Z,101392.00
2018-08-19T06:03:13.718Z,101385.00
2018-08-19T06:05:43.589Z,101380.00
2018-08-19T06:08:15.557Z,101382.00
2018-08-19T06:10:45.611Z,101383.00
2018-08-19T06:13:15.390Z,101375.00
2018-08-19T06:15:45.621Z,101379.00
2018-08-19T06:18:15.403Z,101379.00
2018-08-19T06:20:46.230Z,101380.00
2018-08-19T06:23:15.944Z,101380.00
2018-08-19T06:25:45.558Z,101383.00
2018-08-19T06:28:15.069Z,101386.00
2018-08-19T06:30:45.034Z,101382.00
2018-08-19T06:33:15.016Z,101382.00
2018-08-19T06:35:44.809Z,101382.00
2018-08-19T06:38:14.289Z,101379.00
2018-08-19T06:40:44.064Z,101381.00
2018-08-19T06:43:13.634Z,101385.00
2018-08-19T06:45:43.177Z,101381.00
2018-08-19T06:48:12.948Z,101376.00
2018-08-19T06:50:43.119Z,101377.00
2018-08-19T06:53:16.911Z,101372.00
2018-08-19T06:55:46.763Z,101375.00
2018-08-19T06:58:16.673Z,101376.00
2018-08-19T07:00:46.800Z,101371.00
2018-08-19T07:03:16.864Z,101368.00
2018-08-19T07:06:02.178Z,101364.00
2018-08-19T07:08:32.363Z,101367.00
2018-08-19T07:11:02.628Z,101360.00
2018-08-19T07:13:32.550Z,101355.00
2018-08-19T07:16:01.998Z,101358.00
2018-08-19T07:18:31.873Z,101354.00
2018-08-19T07:21:01.509Z,101352.00
2018-08-19T07:23:31.376Z,101350.00
2018-08-19T07:26:00.840Z,101353.00
2018-08-19T07:28:30.224Z,101355.00
2018-08-19T07:31:00.234Z,101352.00
2018-08-19T07:33:30.788Z,101348.00
2018-08-19T07:36:00.712Z,101343.00
2018-08-19T07:38:30.684Z,101348.00
2018-08-19T07:41:00.628Z,101344.00
2018-08-19T07:43:30.435Z,101349.00
2018-08-19T07:46:00.325Z,101351.00
2018-08-19T07:48:30.245Z,101353.00
2018-08-19T07:51:00.204Z,101352.00
2018-08-19T07:53:30.056Z,101354.00
2018-08-19T07:55:59.988Z,101350.00
2018-08-19T07:58:41.725Z,101353.00
2018-08-19T08:01:11.805Z,101346.00
2018-08-19T08:03:41.681Z,101345.00
2018-08-19T08:06:11.137Z,101356.00
2018-08-19T08:08:40.886Z,101350.00
2018-08-19T08:11:10.433Z,101350.00
2018-08-19T08:13:40.046Z,101345.00
2018-08-19T08:16:09.608Z,101339.00
2018-08-19T08:18:39.250Z,101351.00
2018-08-19T08:21:15.511Z,101346.00
2018-08-19T08:23:45.504Z,101352.00
2018-08-19T08:26:15.699Z,101348.00
2018-08-19T08:28:53.760Z,101340.00
2018-08-19T08:31:23.973Z,101353.00
2018-08-19T08:33:54.195Z,101365.00
2018-08-19T08:36:24.301Z,101346.00
2018-08-19T08:38:54.306Z,101344.00
2018-08-19T08:41:24.224Z,101347.00
2018-08-19T08:43:54.018Z,101350.00
2018-08-19T08:46:23.930Z,101350.00
2018-08-19T08:48:53.874Z,101346.00
2018-08-19T08:51:23.966Z,101354.00
2018-08-19T08:53:53.556Z,101346.00
2018-08-19T08:56:23.687Z,101352.00
2018-08-19T08:58:53.104Z,101346.00
2018-08-19T09:01:22.639Z,101349.00
2018-08-19T09:03:52.416Z,101345.00
2018-08-19T09:06:27.194Z,101349.00
2018-08-19T09:08:57.743Z,101339.00
2018-08-19T09:11:27.465Z,101338.00
2018-08-19T09:13:57.256Z,101338.00
2018-08-19T09:16:27.072Z,101337.00
2018-08-19T09:18:57.180Z,101336.00
2018-08-19T09:26:19.848Z,101327.00
2018-08-19T09:28:49.368Z,101335.00
2018-08-19T09:31:19.069Z,101335.00
2018-08-19T09:33:48.530Z,101331.00
2018-08-19T09:36:18.124Z,101319.00
2018-08-19T09:38:47.562Z,101313.00
2018-08-19T09:41:17.258Z,101314.00
2018-08-19T09:43:46.774Z,101318.00
2018-08-19T09:46:16.375Z,101311.00
2018-08-19T09:48:46.226Z,101316.00
2018-08-19T09:51:16.275Z,101320.00
2018-08-19T09:53:46.469Z,101316.00
2018-08-19T09:56:16.246Z,101312.00
2018-08-19T09:58:50.934Z,101309.00
2018-08-19T10:01:25.986Z,101316.00
2018-08-19T10:03:55.849Z,101316.00
2018-08-19T10:06:25.669Z,101305.00
2018-08-19T10:08:55.146Z,101299.00
2018-08-19T10:11:24.665Z,101287.00
2018-08-19T10:13:59.095Z,101284.00
2018-08-19T10:16:41.716Z,101285.00
2018-08-19T10:19:11.684Z,101282.00
2018-08-19T10:21:41.253Z,101278.00
2018-08-19T10:24:33.984Z,101272.00
2018-08-19T10:27:08.550Z,101272.00
2018-08-19T10:29:38.415Z,101269.00
2018-08-19T10:32:08.219Z,101271.00
2018-08-19T10:34:38.134Z,101261.00
2018-08-19T10:37:08.318Z,101263.00
2018-08-19T10:39:38.359Z,101247.00
2018-08-19T10:42:21.830Z,101251.00
2018-08-19T10:44:52.552Z,101245.00
2018-08-19T10:47:22.313Z,101250.00
2018-08-19T10:49:58.626Z,101257.00
2018-08-19T10:52:30.851Z,101244.00
2018-08-19T10:55:01.404Z,101238.00
2018-08-19T10:57:31.975Z,101228.00
2018-08-19T11:00:02.108Z,101224.00
2018-08-19T11:02:32.178Z,101231.00
2018-08-19T11:05:02.131Z,101222.00
2018-08-19T11:07:32.175Z,101214.00
2018-08-19T11:10:21.675Z,101215.00
2018-08-19T11:12:54.459Z,101220.00
2018-08-19T11:15:49.990Z,101219.00
2018-08-19T11:18:43.389Z,101218.00
2018-08-19T11:21:14.820Z,101210.00
2018-08-19T11:23:46.305Z,101198.00
2018-08-19T11:26:16.396Z,101202.00
2018-08-19T11:28:51.938Z,101197.00
2018-08-19T11:31:27.873Z,101200.00
2018-08-19T11:34:00.310Z,101188.00
2018-08-19T11:36:36.886Z,101189.00
2018-08-19T11:39:12.193Z,101194.00
2018-08-19T11:41:41.962Z,101184.00
2018-08-19T11:44:15.994Z,101189.00
2018-08-19T11:46:46.211Z,101184.00
2018-08-19T11:49:19.285Z,101182.00
2018-08-19T11:51:52.722Z,101179.00
2018-08-19T11:54:23.736Z,101178.00
2018-08-19T11:57:01.916Z,101176.00
2018-08-19T11:59:45.277Z,101186.00
2018-08-19T12:02:20.357Z,101170.00
2018-08-19T12:04:50.918Z,101171.00
2018-08-19T12:08:11.632Z,101174.00
2018-08-19T12:10:41.058Z,101162.00
2018-08-19T12:13:10.686Z,101161.00
2018-08-19T12:15:40.642Z,101177.00
2018-08-19T12:18:10.279Z,101170.00
2018-08-19T12:20:39.985Z,101167.00
2018-08-19T12:23:10.866Z,101156.00
2018-08-19T12:25:40.487Z,101159.00
2018-08-19T12:28:10.151Z,101160.00
2018-08-19T12:30:39.901Z,101146.00
2018-08-19T12:33:24.551Z,101143.00
2018-08-19T12:35:56.819Z,101149.00
2018-08-19T12:38:27.141Z,101147.00
2018-08-19T12:40:57.170Z,101151.00
2018-08-19T12:43:27.557Z,101145.00
2018-08-19T12:45:58.370Z,101138.00
2018-08-19T12:48:28.687Z,101123.00
2018-08-19T12:51:05.548Z,101126.00
2018-08-19T12:53:35.860Z,101122.00
2018-08-19T12:56:05.961Z,101107.00
2018-08-19T12:58:35.791Z,101118.00
2018-08-19T13:01:06.157Z,101117.00
2018-08-19T13:03:36.316Z,101113.00
2018-08-19T13:06:08.031Z,101096.00
2018-08-19T13:08:38.254Z,101109.00
2018-08-19T13:11:08.952Z,101107.00
2018-08-19T13:13:39.144Z,101102.00
2018-08-19T13:16:09.124Z,101097.00
2018-08-19T13:18:42.164Z,101092.00
2018-08-19T13:21:16.270Z,101086.00
2018-08-19T13:23:46.639Z,101085.00
2018-08-19T13:26:16.505Z,101092.00
2018-08-19T13:28:54.517Z,101088.00
2018-08-19T13:31:28.165Z,101083.00
2018-08-19T13:33:57.590Z,101079.00
2018-08-19T13:36:27.082Z,101073.00
2018-08-19T13:38:56.506Z,101084.00
2018-08-19T13:41:25.965Z,101059.00
2018-08-19T13:43:55.477Z,101059.00
2018-08-19T13:46:25.063Z,101054.00
2018-08-19T13:48:54.537Z,101055.00
2018-08-19T13:51:23.971Z,101048.00
2018-08-19T13:53:53.652Z,101042.00
2018-08-19T13:56:23.517Z,101034.00
2018-08-19T13:58:53.018Z,101038.00
2018-08-19T14:01:22.445Z,101035.00
2018-08-19T14:03:52.092Z,101028.00
2018-08-19T14:06:21.976Z,101023.00
2018-08-19T14:08:52.776Z,101022.00
2018-08-19T14:11:22.399Z,101027.00
2018-08-19T14:13:52.280Z,101038.00
2018-08-19T14:16:21.970Z,101039.00
2018-08-19T14:18:51.547Z,101026.00
2018-08-19T14:21:21.072Z,101017.00
2018-08-19T14:23:50.736Z,101018.00
2018-08-19T14:26:20.324Z,101015.00
2018-08-19T14:28:49.827Z,101015.00
2018-08-19T14:31:19.247Z,101015.00
2018-08-19T14:33:48.825Z,101013.00
2018-08-19T14:36:18.418Z,101015.00
2018-08-19T14:38:48.170Z,101013.00
2018-08-19T14:41:17.748Z,101014.00
2018-08-19T14:43:59.494Z,101017.00
2018-08-19T14:46:30.197Z,101010.00
2018-08-19T14:49:03.914Z,101029.00
2018-08-19T14:52:02.399Z,101006.00
2018-08-19T14:54:33.429Z,101001.00
2018-08-19T14:57:03.618Z,100997.00
2018-08-19T14:59:33.107Z,100990.00
2018-08-19T15:02:02.797Z,100997.00
2018-08-19T15:04:32.197Z,101003.00
2018-08-19T15:07:01.907Z,101001.00
2018-08-19T15:09:32.543Z,101013.00
2018-08-19T15:12:13.101Z,101000.00
2018-08-19T15:14:43.323Z,100999.00
2018-08-19T15:17:13.007Z,100983.00
2018-08-19T15:19:48.627Z,100982.00
2018-08-19T15:22:18.652Z,100977.00
2018-08-19T15:24:48.616Z,100982.00
2018-08-19T15:27:18.728Z,100972.00
2018-08-19T15:29:51.704Z,100969.00
2018-08-19T15:32:24.308Z,100971.00
2018-08-19T15:34:54.371Z,100962.00
2018-08-19T15:37:24.345Z,100967.00
2018-08-19T15:39:54.367Z,100962.00
2018-08-19T15:42:24.423Z,100964.00
2018-08-19T15:44:54.446Z,100961.00
2018-08-19T15:47:24.427Z,100964.00
2018-08-19T15:50:14.065Z,100964.00
2018-08-19T15:52:45.164Z,100952.00
2018-08-19T15:55:15.554Z,100958.00
2018-08-19T15:57:45.452Z,100954.00
2018-08-19T16:00:15.551Z,100946.00
2018-08-19T16:02:45.505Z,100961.00
2018-08-19T16:05:16.482Z,100951.00
2018-08-19T16:07:47.335Z,100946.00
2018-08-19T16:10:17.479Z,100942.00
2018-08-19T16:12:49.894Z,100936.00
2018-08-19T16:15:26.051Z,100937.00
2018-08-19T16:17:57.261Z,100941.00
2018-08-19T16:20:27.447Z,100933.00
2018-08-19T16:22:57.525Z,100941.00
2018-08-19T16:25:27.415Z,100946.00
2018-08-19T16:27:57.517Z,100941.00
2018-08-19T16:30:27.774Z,100934.00
2018-08-19T16:32:57.840Z,100943.00
2018-08-19T16:35:28.005Z,100943.00
2018-08-19T16:37:57.960Z,100939.00
2018-08-19T16:40:28.204Z,100944.00
2018-08-19T16:42:58.160Z,100933.00
2018-08-19T16:45:28.286Z,100933.00
2018-08-19T16:47:58.330Z,100925.00
2018-08-19T16:50:28.921Z,100925.00
2018-08-19T16:52:58.849Z,100935.00
2018-08-19T16:55:28.891Z,100933.00
2018-08-19T16:57:58.966Z,100931.00
2018-08-19T17:00:28.909Z,100929.00
2018-08-19T17:02:59.025Z,100920.00
2018-08-19T17:05:33.451Z,100930.00
2018-08-19T17:08:03.510Z,100933.00
2018-08-19T17:10:33.137Z,100936.00
2018-08-19T17:13:02.567Z,100933.00
2018-08-19T17:15:32.565Z,100935.00
2018-08-19T17:18:02.548Z,100927.00
2018-08-19T17:20:32.535Z,100925.00
2018-08-19T17:23:03.624Z,100931.00
2018-08-19T17:25:34.727Z,100922.00
2018-08-19T17:28:10.646Z,100923.00
2018-08-19T17:30:40.849Z,100924.00
2018-08-19T17:33:11.460Z,100922.00
2018-08-19T17:35:44.226Z,100922.00
2018-08-19T17:38:14.552Z,100920.00
2018-08-19T17:40:46.105Z,100896.00
2018-08-19T17:43:16.054Z,100919.00
2018-08-19T17:45:49.889Z,100928.00
2018-08-19T17:48:19.994Z,100922.00
2018-08-19T17:50:50.416Z,100929.00
2018-08-19T17:53:20.414Z,100930.00
2018-08-19T17:55:50.379Z,100928.00
2018-08-19T17:58:21.760Z,100919.00
2018-08-19T18:05:49.965Z,100946.00
2018-08-19T18:08:20.161Z,100950.00
2018-08-19T18:10:56.192Z,100941.00
2018-08-19T18:13:27.004Z,100942.00
2018-08-19T18:15:57.507Z,100947.00
2018-08-19T18:18:28.572Z,100948.00
2018-08-19T18:20:59.351Z,100946.00
2018-08-19T18:23:29.522Z,100946.00
2018-08-19T18:25:59.648Z,100950.00
2018-08-19T18:28:31.075Z,100953.00
2018-08-19T18:33:53.109Z,100954.00
2018-08-19T18:36:24.638Z,100954.00
2018-08-19T18:38:54.714Z,100948.00
2018-08-19T18:41:30.114Z,100951.00
2018-08-19T18:44:01.663Z,100948.00
2018-08-19T18:46:32.339Z,100946.00
2018-08-19T18:49:09.552Z,100947.00
2018-08-19T18:51:40.966Z,100950.00
2018-08-19T18:54:20.705Z,100947.00
2018-08-19T18:56:52.037Z,100949.00
2018-08-19T18:59:22.765Z,100947.00
2018-08-19T19:01:57.944Z,100947.00
2018-08-19T19:04:28.276Z,100952.00
2018-08-19T19:06:58.389Z,100952.00
2018-08-19T19:09:38.832Z,100956.00
2018-08-19T19:12:08.970Z,100959.00
2018-08-19T19:14:40.930Z,100955.00
2018-08-19T19:17:11.406Z,100959.00
2018-08-19T19:19:46.498Z,100967.00
2018-08-19T19:22:16.674Z,100963.00
2018-08-19T19:24:47.051Z,100958.00
2018-08-19T19:27:17.315Z,100961.00
2018-08-19T19:29:51.795Z,100961.00
2018-08-19T19:32:26.026Z,100959.00
2018-08-19T19:34:57.704Z,100956.00
2018-08-19T19:37:28.107Z,100955.00
2018-08-19T19:40:03.701Z,100954.00
2018-08-19T19:42:34.339Z,100954.00
2018-08-19T19:45:04.599Z,100956.00
2018-08-19T19:47:34.910Z,100959.00
2018-08-19T19:50:05.745Z,100958.00
2018-08-19T19:52:35.871Z,100957.00
2018-08-19T19:55:05.955Z,100956.00
2018-08-19T19:57:36.112Z,100954.00
2018-08-19T20:00:06.074Z,100955.00
2018-08-19T20:02:36.262Z,100951.00
2018-08-19T20:05:12.330Z,100954.00
2018-08-19T20:07:42.688Z,100954.00
2018-08-19T20:10:19.580Z,100957.00
2018-08-19T20:12:49.565Z,100955.00
2018-08-19T20:15:19.933Z,100957.00
2018-08-19T20:17:50.034Z,100939.00
2018-08-19T20:20:20.332Z,100954.00
2018-08-19T20:22:50.546Z,100955.00
2018-08-19T20:25:20.844Z,100957.00
2018-08-19T20:27:55.448Z,100949.00
2018-08-19T20:30:25.306Z,100951.00
2018-08-19T20:32:55.130Z,100967.00
2018-08-19T20:35:25.240Z,100967.00
2018-08-19T20:37:55.957Z,100967.00
2018-08-19T20:40:25.786Z,100972.00
2018-08-19T20:42:55.610Z,100968.00
2018-08-19T20:45:25.312Z,100972.00
2018-08-19T20:47:55.398Z,100968.00
2018-08-19T20:50:25.302Z,100978.00
2018-08-19T20:52:55.403Z,100984.00
2018-08-19T20:55:25.697Z,100984.00
2018-08-19T20:57:55.716Z,100993.00
2018-08-19T21:00:25.811Z,100992.00
2018-08-19T21:02:55.844Z,100993.00
2018-08-19T21:05:25.814Z,101005.00
2018-08-19T21:08:14.794Z,101007.00
2018-08-19T21:10:45.696Z,101005.00
2018-08-19T21:13:17.091Z,101006.00
2018-08-19T21:15:50.691Z,101006.00
2018-08-19T21:18:20.815Z,101009.00
2018-08-19T21:20:51.077Z,101012.00
2018-08-19T21:23:21.105Z,101012.00
2018-08-19T21:25:56.305Z,101010.00
2018-08-19T21:28:26.385Z,101017.00
2018-08-19T21:30:56.594Z,101014.00
2018-08-19T21:33:26.719Z,101016.00
2018-08-19T21:35:57.396Z,101018.00
2018-08-19T21:38:27.546Z,101019.00
2018-08-19T21:40:58.526Z,101021.00
2018-08-19T21:43:31.376Z,101021.00
2018-08-19T21:46:01.949Z,101026.00
2018-08-19T21:48:32.105Z,101030.00
2018-08-19T21:51:02.100Z,101027.00
2018-08-19T21:53:32.242Z,101020.00
2018-08-19T21:56:02.221Z,101015.00
2018-08-19T21:58:32.019Z,101019.00
2018-08-19T22:01:03.381Z,101010.00
2018-08-19T22:03:38.606Z,101013.00
2018-08-19T22:06:09.587Z,101015.00
2018-08-19T22:08:39.625Z,101015.00
2018-08-19T22:11:09.582Z,101010.00
2018-08-19T22:13:39.465Z,101008.00
2018-08-19T22:16:09.374Z,101008.00
2018-08-19T22:18:39.500Z,101010.00
2018-08-19T22:21:19.137Z,101007.00
2018-08-19T22:23:50.310Z,101008.00
2018-08-19T22:26:21.324Z,101006.00
2018-08-19T22:29:09.215Z,101007.00
2018-08-19T22:31:39.226Z,101009.00
2018-08-19T22:34:09.334Z,101009.00
2018-08-19T22:36:39.265Z,101008.00
2018-08-19T22:39:11.763Z,101010.00
2018-08-19T22:41:42.153Z,101002.00
2018-08-19T22:44:12.334Z,101004.00
2018-08-19T22:46:42.488Z,101007.00
2018-08-19T22:49:12.707Z,101011.00
2018-08-19T22:51:42.920Z,101006.00
2018-08-19T22:54:12.745Z,101009.00
2018-08-19T22:56:42.599Z,101012.00
2018-08-19T22:59:12.505Z,101011.00
2018-08-19T23:01:49.019Z,101012.00
2018-08-19T23:04:19.020Z,101014.00
2018-08-19T23:06:49.031Z,101009.00
2018-08-19T23:09:19.104Z,101007.00
2018-08-19T23:11:48.985Z,101006.00
2018-08-19T23:14:35.281Z,101007.00
2018-08-19T23:17:08.645Z,101004.00
2018-08-19T23:19:38.755Z,101004.00
2018-08-19T23:22:08.728Z,101003.00
2018-08-19T23:24:38.774Z,101000.00
2018-08-19T23:27:08.785Z,101001.00
2018-08-19T23:29:39.059Z,100998.00
2018-08-19T23:32:09.170Z,100997.00
2018-08-19T23:34:39.110Z,101000.00
2018-08-19T23:37:09.074Z,100994.00
2018-08-19T23:39:39.064Z,100990.00
2018-08-19T23:42:08.930Z,100992.00
2018-08-19T23:44:38.895Z,100995.00
2018-08-19T23:47:09.165Z,100997.00
2018-08-19T23:49:39.058Z,100999.00
2018-08-19T23:52:09.144Z,100992.00
2018-08-19T23:54:39.139Z,100999.00
2018-08-19T23:57:09.104Z,100995.00
2018-08-19T23:59:39.273Z,100994.00
